Seymour, Connecticut
Current Conditions -  °F | °C
As of 3:50 PM on Monday 24 Nov 2014 (Local Time) from KOXC Reporting Station
Moderate Fog Moderate Fog  
Wind Chill: 59°   Ceiling: 100
Heat Index: 59°   Visibility: 0.5mi
Dew Point: 55°   Wind: 14mph
Humidity: 88%   Direction: 200°SSW
Pressure: 29.6"   Gusts: 21mph
Location:  41.4°N, 73.08°W
Report Text: KOXC 242050Z 20012G18KT 1/2SM FG VV001 15/13 A2960
Loading
Personal Weather Stations






























Interactive Weather Map New forecast layout! Learn more

10-Day Weather Forecast

Advertisements
Track Severe Weather on mobile